Time,TemperatureF,DewpointF,PressureIn,WindDirection,WindDirectionDegrees,WindSpeedMPH,WindSpeedGustMPH,Humidity,HourlyPrecipIn,Conditions,Clouds,dailyrainin,SoftwareType,DateUTC
2013-04-22 00:00:00,67.0,56.1,30.02,SE,138,2.0,12.0,68,0.00,,,0.00,VWS V15.00,2013-04-22 05:00:00,
2013-04-22 00:03:00,65.3,56.0,30.03,SSE,148,9.0,9.0,72,0.00,,,0.00,VWS V13.01,2013-04-22 05:03:00,
2013-04-22 00:08:00,65.2,56.3,30.03,SSE,150,9.0,13.0,73,0.00,,,0.00,VWS V13.01,2013-04-22 05:08:00,
2013-04-22 00:10:00,66.7,56.2,30.02,SE,138,0.0,8.0,69,0.00,,,0.00,VWS V15.00,2013-04-22 05:10:00,
2013-04-22 00:13:00,65.0,56.2,30.03,SSE,148,0.0,11.0,73,0.00,,,0.00,VWS V13.01,2013-04-22 05:13:00,
2013-04-22 00:18:00,64.9,56.0,30.02,SSE,148,1.0,13.0,73,0.00,,,0.00,VWS V13.01,2013-04-22 05:18:00,
2013-04-22 00:20:00,66.5,56.0,30.03,SE,142,5.0,9.0,69,0.00,,,0.00,VWS V15.00,2013-04-22 05:20:00,
2013-04-22 00:23:00,64.8,56.0,30.02,SSE,153,0.0,14.0,73,0.00,,,0.00,VWS V13.01,2013-04-22 05:23:00,
2013-04-22 00:28:00,64.7,56.2,30.02,SSE,153,0.0,14.0,74,0.00,,,0.00,VWS V13.01,2013-04-22 05:28:00,
2013-04-22 00:30:00,66.2,56.1,30.03,SE,144,5.0,12.0,70,0.00,,,0.00,VWS V15.00,2013-04-22 05:30:00,
2013-04-22 00:33:00,64.6,56.1,30.02,SSE,155,9.0,11.0,74,0.00,,,0.00,VWS V13.01,2013-04-22 05:33:00,
2013-04-22 00:38:00,64.5,56.0,30.02,SSE,164,0.0,13.0,74,0.00,,,0.00,VWS V13.01,2013-04-22 05:38:00,
2013-04-22 00:40:00,65.9,55.8,30.03,SE,140,9.0,12.0,70,0.00,,,0.00,VWS V15.00,2013-04-22 05:40:00,
2013-04-22 00:43:00,64.4,56.3,30.02,SSE,160,10.0,13.0,75,0.00,,,0.00,VWS V13.01,2013-04-22 05:43:00,
2013-04-22 00:48:00,64.4,56.7,30.03,SSE,158,0.0,16.0,76,0.00,,,0.00,VWS V13.01,2013-04-22 05:48:00,
2013-04-22 00:50:00,65.7,56.0,30.03,SE,138,3.0,12.0,71,0.00,,,0.00,VWS V15.00,2013-04-22 05:50:00,
2013-04-22 00:53:00,64.3,56.2,30.03,SSE,157,0.0,8.0,75,0.00,,,0.00,VWS V13.01,2013-04-22 05:53:00,
2013-04-22 00:58:00,64.1,56.4,30.03,South,170,0.0,15.0,76,0.00,,,0.00,VWS V13.01,2013-04-22 05:58:00,
2013-04-22 01:00:00,65.3,56.0,30.03,SSE,149,0.0,12.0,72,0.00,,,0.00,VWS V15.00,2013-04-22 06:00:00,
2013-04-22 01:03:00,64.0,56.3,30.03,SSE,168,0.0,0.0,76,0.00,,,0.00,VWS V13.01,2013-04-22 06:03:00,
2013-04-22 01:08:00,63.8,56.5,30.03,SSE,168,3.0,14.0,77,0.00,,,0.00,VWS V13.01,2013-04-22 06:08:00,
2013-04-22 01:10:00,65.1,56.2,30.03,SSE,150,0.0,13.0,73,0.00,,,0.00,VWS V15.00,2013-04-22 06:10:00,
2013-04-22 01:13:00,63.6,56.6,30.03,South,171,0.0,19.0,78,0.00,,,0.00,VWS V13.01,2013-04-22 06:13:00,
2013-04-22 01:18:00,63.3,56.7,30.03,South,180,0.0,19.0,79,0.00,,,0.00,VWS V13.01,2013-04-22 06:18:00,
2013-04-22 01:20:00,64.8,56.0,30.02,SSE,157,12.0,15.0,73,0.00,,,0.00,VWS V15.00,2013-04-22 06:20:00,
2013-04-22 01:23:00,63.2,56.6,30.03,South,184,5.0,13.0,79,0.00,,,0.00,VWS V13.01,2013-04-22 06:23:00,
2013-04-22 01:28:00,63.0,56.7,30.03,South,169,0.0,16.0,80,0.00,,,0.00,VWS V13.01,2013-04-22 06:28:00,
2013-04-22 01:30:00,64.7,56.2,30.02,SSE,153,0.0,14.0,74,0.00,,,0.00,VWS V15.00,2013-04-22 06:30:00,
2013-04-22 01:33:00,62.9,56.6,30.02,South,169,7.0,16.0,80,0.00,,,0.00,VWS V13.01,2013-04-22 06:33:00,
2013-04-22 01:38:00,62.7,56.5,30.02,South,185,10.0,16.0,80,0.00,,,0.00,VWS V13.01,2013-04-22 06:38:00,
2013-04-22 01:40:00,64.5,56.4,30.02,SSE,160,7.0,13.0,75,0.00,,,0.00,VWS V15.00,2013-04-22 06:40:00,
2013-04-22 01:43:00,62.5,56.6,30.02,South,183,0.0,14.0,81,0.00,,,0.00,VWS V13.01,2013-04-22 06:43:00,
2013-04-22 01:48:00,62.4,56.5,30.02,SSE,157,8.0,14.0,81,0.00,,,0.00,VWS V13.01,2013-04-22 06:48:00,
2013-04-22 01:50:00,64.3,56.2,30.03,SSE,158,3.0,16.0,75,0.00,,,0.00,VWS V15.00,2013-04-22 06:50:00,
2013-04-22 01:53:00,62.3,56.4,30.02,SSE,157,0.0,0.0,81,0.00,,,0.00,VWS V13.01,2013-04-22 06:53:00,
2013-04-22 01:58:00,62.1,56.2,30.02,SSE,167,0.0,12.0,81,0.00,,,0.00,VWS V13.01,2013-04-22 06:58:00,
2013-04-22 02:00:00,64.1,56.4,30.03,SSE,168,0.0,15.0,76,0.00,,,0.00,VWS V15.00,2013-04-22 07:00:00,
2013-04-22 02:03:00,62.0,56.5,30.02,SSE,167,0.0,0.0,82,0.00,,,0.00,VWS V13.01,2013-04-22 07:03:00,
2013-04-22 02:08:00,61.8,56.2,30.02,SSE,162,11.0,15.0,82,0.00,,,0.00,VWS V13.01,2013-04-22 07:08:00,
2013-04-22 02:10:00,63.7,56.7,30.03,SSE,167,7.0,14.0,78,0.00,,,0.00,VWS V15.00,2013-04-22 07:10:00,
2013-04-22 02:13:00,61.7,56.2,30.02,South,182,4.0,14.0,82,0.00,,,0.00,VWS V13.01,2013-04-22 07:13:00,
2013-04-22 02:18:00,61.6,56.1,30.02,SSE,165,0.0,14.0,82,0.00,,,0.00,VWS V13.01,2013-04-22 07:18:00,
2013-04-22 02:20:00,63.2,56.6,30.03,South,173,11.0,19.0,79,0.00,,,0.00,VWS V15.00,2013-04-22 07:20:00,
2013-04-22 02:23:00,61.6,56.1,30.02,SSE,155,0.0,10.0,82,0.00,,,0.00,VWS V13.01,2013-04-22 07:23:00,
2013-04-22 02:28:00,61.5,56.0,30.02,SSE,155,0.0,11.0,82,0.00,,,0.00,VWS V13.01,2013-04-22 07:28:00,
2013-04-22 02:30:00,63.0,56.7,30.02,SSE,162,8.0,16.0,80,0.00,,,0.00,VWS V15.00,2013-04-22 07:30:00,
2013-04-22 02:33:00,61.4,55.9,30.02,SSE,159,0.0,9.0,82,0.00,,,0.00,VWS V13.01,2013-04-22 07:33:00,
2013-04-22 02:38:00,61.3,55.8,30.02,SSE,158,0.0,12.0,82,0.00,,,0.00,VWS V13.01,2013-04-22 07:38:00,
2013-04-22 02:40:00,62.5,56.6,30.02,South,178,3.0,16.0,81,0.00,,,0.00,VWS V15.00,2013-04-22 07:40:00,
2013-04-22 02:43:00,61.1,55.6,30.02,SSE,153,0.0,11.0,82,0.00,,,0.00,VWS V13.01,2013-04-22 07:43:00,
2013-04-22 02:48:00,61.0,55.5,30.01,SSE,160,0.0,14.0,82,0.00,,,0.00,VWS V13.01,2013-04-22 07:48:00,
2013-04-22 02:50:00,62.3,56.4,30.02,SSE,157,0.0,14.0,81,0.00,,,0.00,VWS V15.00,2013-04-22 07:50:00,
2013-04-22 02:53:00,60.9,55.4,30.01,SSE,163,0.0,12.0,82,0.00,,,0.00,VWS V13.01,2013-04-22 07:53:00,
2013-04-22 02:58:00,60.8,55.3,30.01,SSE,163,5.0,12.0,82,0.00,,,0.00,VWS V13.01,2013-04-22 07:58:00,
2013-04-22 03:00:00,62.0,56.5,30.02,SSE,168,0.0,12.0,82,0.00,,,0.00,VWS V15.00,2013-04-22 08:00:00,
2013-04-22 03:03:00,60.7,55.2,30.01,SSE,164,5.0,11.0,82,0.00,,,0.00,VWS V13.01,2013-04-22 08:03:00,
2013-04-22 03:08:00,60.6,55.1,30.01,South,171,0.0,12.0,82,0.00,,,0.00,VWS V13.01,2013-04-22 08:08:00,
2013-04-22 03:10:00,61.8,56.2,30.02,SSE,167,7.0,15.0,82,0.00,,,0.00,VWS V15.00,2013-04-22 08:10:00,
2013-04-22 03:13:00,60.5,55.0,30.01,SSE,167,5.0,8.0,82,0.00,,,0.00,VWS V13.01,2013-04-22 08:13:00,
2013-04-22 03:18:00,60.4,54.9,30.00,SSE,167,0.0,9.0,82,0.00,,,0.00,VWS V13.01,2013-04-22 08:18:00,
2013-04-22 03:20:00,61.6,56.1,30.02,SSE,155,0.0,14.0,82,0.00,,,0.00,VWS V15.00,2013-04-22 08:20:00,
2013-04-22 03:23:00,60.2,54.7,30.00,SSE,167,0.0,6.0,82,0.00,,,0.00,VWS V13.01,2013-04-22 08:23:00,
2013-04-22 03:28:00,60.2,54.7,30.00,SSE,167,0.0,6.0,82,0.00,,,0.00,VWS V13.01,2013-04-22 08:28:00,
2013-04-22 03:30:00,61.4,55.9,30.02,SSE,159,9.0,16.0,82,0.00,,,0.00,VWS V15.00,2013-04-22 08:30:00,
2013-04-22 03:33:00,60.0,54.5,30.00,SSE,167,3.0,6.0,82,0.00,,,0.00,VWS V13.01,2013-04-22 08:33:00,
2013-04-22 03:38:00,60.0,54.8,30.00,SSE,167,0.0,6.0,83,0.00,,,0.00,VWS V13.01,2013-04-22 08:38:00,
2013-04-22 03:40:00,61.2,55.7,30.02,SSE,153,10.0,12.0,82,0.00,,,0.00,VWS V15.00,2013-04-22 08:40:00,
2013-04-22 03:43:00,59.9,54.7,30.00,SSE,167,0.0,7.0,83,0.00,,,0.00,VWS V13.01,2013-04-22 08:43:00,
2013-04-22 03:48:00,59.8,55.0,30.00,SSE,167,6.0,12.0,84,0.00,,,0.00,VWS V13.01,2013-04-22 08:48:00,
2013-04-22 03:50:00,61.0,55.5,30.01,SSE,166,6.0,14.0,82,0.00,,,0.00,VWS V15.00,2013-04-22 08:50:00,
2013-04-22 03:53:00,59.7,54.9,30.00,SSE,167,0.0,4.0,84,0.00,,,0.00,VWS V13.01,2013-04-22 08:53:00,
2013-04-22 03:58:00,59.6,55.1,30.00,South,171,6.0,10.0,85,0.00,,,0.00,VWS V13.01,2013-04-22 08:58:00,
2013-04-22 04:00:00,60.8,55.3,30.01,SSE,164,0.0,12.0,82,0.00,,,0.00,VWS V15.00,2013-04-22 09:00:00,
2013-04-22 04:03:00,59.5,55.0,30.00,South,169,3.0,11.0,85,0.00,,,0.00,VWS V13.01,2013-04-22 09:03:00,
2013-04-22 04:08:00,59.3,54.8,30.00,South,169,0.0,11.0,85,0.00,,,0.00,VWS V13.01,2013-04-22 09:08:00,
2013-04-22 04:10:00,60.5,55.0,30.01,SSE,167,7.0,12.0,82,0.00,,,0.00,VWS V15.00,2013-04-22 09:10:00,
2013-04-22 04:13:00,59.1,54.6,30.00,South,169,0.0,5.0,85,0.00,,,0.00,VWS V13.01,2013-04-22 09:13:00,
2013-04-22 04:18:00,59.0,54.8,30.00,South,169,0.0,5.0,86,0.00,,,0.00,VWS V13.01,2013-04-22 09:18:00,
2013-04-22 04:20:00,60.3,54.8,30.00,SSE,167,0.0,9.0,82,0.00,,,0.00,VWS V15.00,2013-04-22 09:20:00,
2013-04-22 04:23:00,59.0,54.8,30.00,South,169,2.0,4.0,86,0.00,,,0.00,VWS V13.01,2013-04-22 09:23:00,
2013-04-22 04:28:00,59.0,54.8,30.00,South,169,0.0,7.0,86,0.00,,,0.00,VWS V13.01,2013-04-22 09:28:00,
2013-04-22 04:30:00,60.1,54.6,30.00,SSE,167,0.0,10.0,82,0.00,,,0.00,VWS V15.00,2013-04-22 09:30:00,
2013-04-22 04:33:00,59.0,54.8,30.00,South,169,0.0,3.0,86,0.00,,,0.00,VWS V13.01,2013-04-22 09:33:00,
2013-04-22 04:38:00,59.0,54.8,30.00,South,169,0.0,8.0,86,0.00,,,0.00,VWS V13.01,2013-04-22 09:38:00,
2013-04-22 04:40:00,59.9,54.7,30.00,SSE,167,0.0,6.0,83,0.00,,,0.00,VWS V15.00,2013-04-22 09:40:00,
2013-04-22 04:43:00,59.0,54.8,30.00,South,169,0.0,0.0,86,0.00,,,0.00,VWS V13.01,2013-04-22 09:43:00,
2013-04-22 04:48:00,59.0,54.8,30.00,South,169,0.0,7.0,86,0.00,,,0.00,VWS V13.01,2013-04-22 09:48:00,
2013-04-22 04:50:00,59.8,55.0,30.00,SSE,167,0.0,12.0,84,0.00,,,0.00,VWS V15.00,2013-04-22 09:50:00,
2013-04-22 04:53:00,59.0,54.8,30.00,South,169,6.0,6.0,86,0.00,,,0.00,VWS V13.01,2013-04-22 09:53:00,
2013-04-22 04:58:00,59.0,54.8,30.00,South,169,0.0,6.0,86,0.00,,,0.00,VWS V13.01,2013-04-22 09:58:00,
2013-04-22 05:00:00,59.5,55.0,30.00,South,171,0.0,10.0,85,0.00,,,0.00,VWS V15.00,2013-04-22 10:00:00,
2013-04-22 05:03:00,59.0,54.8,30.00,South,169,0.0,0.0,86,0.00,,,0.00,VWS V13.01,2013-04-22 10:03:00,
2013-04-22 05:08:00,59.0,54.8,30.00,South,169,0.0,0.0,86,0.00,,,0.00,VWS V13.01,2013-04-22 10:08:00,
2013-04-22 05:10:00,59.2,54.7,30.00,South,169,0.0,11.0,85,0.00,,,0.00,VWS V15.00,2013-04-22 10:10:00,
2013-04-22 05:13:00,58.9,54.7,30.00,South,169,0.0,0.0,86,0.00,,,0.00,VWS V13.01,2013-04-22 10:13:00,
2013-04-22 05:18:00,58.8,54.6,30.00,South,169,0.0,0.0,86,0.00,,,0.00,VWS V13.01,2013-04-22 10:18:00,
2013-04-22 05:20:00,59.0,54.8,30.00,South,169,3.0,5.0,86,0.00,,,0.00,VWS V15.00,2013-04-22 10:20:00,
2013-04-22 05:23:00,58.7,54.8,30.00,South,169,0.0,6.0,87,0.00,,,0.00,VWS V13.01,2013-04-22 10:23:00,
2013-04-22 05:28:00,58.6,54.8,30.00,South,169,0.0,6.0,87,0.00,,,0.00,VWS V13.01,2013-04-22 10:28:00,
2013-04-22 05:30:00,59.0,54.8,30.00,South,169,0.0,7.0,86,0.00,,,0.00,VWS V15.00,2013-04-22 10:30:00,
2013-04-22 05:33:00,58.6,54.8,30.00,South,169,0.0,0.0,87,0.00,,,0.00,VWS V13.01,2013-04-22 10:33:00,
2013-04-22 05:38:00,58.4,54.5,30.00,South,169,0.0,0.0,87,0.00,,,0.00,VWS V13.01,2013-04-22 10:38:00,
2013-04-22 05:40:00,59.0,54.8,30.00,South,169,0.0,8.0,86,0.00,,,0.00,VWS V15.00,2013-04-22 10:40:00,
2013-04-22 05:43:00,58.4,54.5,30.00,South,169,0.0,0.0,87,0.00,,,0.00,VWS V13.01,2013-04-22 10:43:00,
2013-04-22 05:48:00,58.3,54.5,30.00,South,169,0.0,0.0,87,0.00,,,0.00,VWS V13.01,2013-04-22 10:48:00,
2013-04-22 05:50:00,59.0,54.8,30.00,South,169,0.0,7.0,86,0.00,,,0.00,VWS V15.00,2013-04-22 10:50:00,
2013-04-22 05:53:00,58.2,54.4,30.00,South,169,0.0,2.0,87,0.00,,,0.00,VWS V13.01,2013-04-22 10:53:00,
2013-04-22 05:58:00,58.1,54.3,30.00,South,169,0.0,2.0,87,0.00,,,0.00,VWS V13.01,2013-04-22 10:58:00,
2013-04-22 06:00:00,59.0,54.8,30.00,South,169,0.0,7.0,86,0.00,,,0.00,VWS V15.00,2013-04-22 11:00:00,
2013-04-22 06:03:00,58.0,54.2,30.00,South,169,0.0,0.0,87,0.00,,,0.00,VWS V13.01,2013-04-22 11:03:00,
2013-04-22 06:08:00,57.9,54.1,30.00,South,169,0.0,0.0,87,0.00,,,0.00,VWS V13.01,2013-04-22 11:08:00,
2013-04-22 06:10:00,59.0,54.8,30.00,South,169,0.0,0.0,86,0.00,,,0.00,VWS V15.00,2013-04-22 11:10:00,
2013-04-22 06:13:00,57.8,54.3,30.00,South,169,0.0,0.0,88,0.00,,,0.00,VWS V13.01,2013-04-22 11:13:00,
2013-04-22 06:18:00,57.7,54.2,30.00,South,169,0.0,0.0,88,0.00,,,0.00,VWS V13.01,2013-04-22 11:18:00,
2013-04-22 06:20:00,58.7,54.8,30.00,South,169,6.0,6.0,87,0.00,,,0.00,VWS V15.00,2013-04-22 11:20:00,
2013-04-22 06:23:00,57.6,54.1,30.00,South,169,0.0,0.0,88,0.00,,,0.00,VWS V13.01,2013-04-22 11:23:00,
2013-04-22 06:28:00,57.6,54.1,30.00,South,169,0.0,0.0,88,0.00,,,0.00,VWS V13.01,2013-04-22 11:28:00,
2013-04-22 06:30:00,58.6,54.8,30.00,South,169,0.0,6.0,87,0.00,,,0.00,VWS V15.00,2013-04-22 11:30:00,
2013-04-22 06:33:00,57.6,54.1,30.00,South,169,0.0,0.0,88,0.00,,,0.00,VWS V13.01,2013-04-22 11:33:00,
2013-04-22 06:38:00,57.6,54.1,30.00,South,169,0.0,0.0,88,0.00,,,0.00,VWS V13.01,2013-04-22 11:38:00,
2013-04-22 06:40:00,58.4,54.5,30.00,South,169,0.0,1.0,87,0.00,,,0.00,VWS V15.00,2013-04-22 11:40:00,
2013-04-22 06:43:00,57.6,54.1,30.00,South,169,0.0,0.0,88,0.00,,,0.00,VWS V13.01,2013-04-22 11:43:00,
2013-04-22 06:48:00,57.5,54.0,30.00,South,169,0.0,0.0,88,0.00,,,0.00,VWS V13.01,2013-04-22 11:48:00,
2013-04-22 06:50:00,58.3,54.5,30.00,South,169,0.0,0.0,87,0.00,,,0.00,VWS V15.00,2013-04-22 11:50:00,
2013-04-22 06:53:00,57.5,54.0,30.00,South,169,0.0,0.0,88,0.00,,,0.00,VWS V13.01,2013-04-22 11:53:00,
2013-04-22 06:58:00,57.5,54.0,30.00,South,169,0.0,0.0,88,0.00,,,0.00,VWS V13.01,2013-04-22 11:58:00,
2013-04-22 07:00:00,58.0,54.2,30.00,South,169,0.0,2.0,87,0.00,,,0.00,VWS V15.00,2013-04-22 12:00:00,
2013-04-22 07:03:00,57.3,53.8,30.01,South,169,0.0,0.0,88,0.00,,,0.00,VWS V13.01,2013-04-22 12:03:00,
2013-04-22 07:08:00,57.2,53.7,30.01,South,169,0.0,0.0,88,0.00,,,0.00,VWS V13.01,2013-04-22 12:08:00,
2013-04-22 07:10:00,57.8,54.3,30.00,South,169,0.0,0.0,88,0.00,,,0.00,VWS V15.00,2013-04-22 12:10:00,
2013-04-22 07:13:00,57.2,53.7,30.01,South,169,0.0,0.0,88,0.00,,,0.00,VWS V13.01,2013-04-22 12:13:00,
2013-04-22 07:18:00,57.2,53.7,30.01,South,169,0.0,0.0,88,0.00,,,0.00,VWS V13.01,2013-04-22 12:18:00,
2013-04-22 07:20:00,57.6,54.1,30.00,South,169,0.0,0.0,88,0.00,,,0.00,VWS V15.00,2013-04-22 12:20:00,
2013-04-22 07:23:00,57.1,53.9,30.01,South,169,0.0,0.0,89,0.00,,,0.00,VWS V13.01,2013-04-22 12:23:00,
2013-04-22 07:28:00,57.2,54.0,30.01,South,169,0.0,0.0,89,0.00,,,0.00,VWS V13.01,2013-04-22 12:28:00,
2013-04-22 07:30:00,57.6,54.1,30.00,South,169,0.0,0.0,88,0.00,,,0.00,VWS V15.00,2013-04-22 12:30:00,
2013-04-22 07:33:00,57.2,54.0,30.01,South,169,0.0,0.0,89,0.00,,,0.00,VWS V13.01,2013-04-22 12:33:00,
2013-04-22 07:38:00,57.3,54.1,30.01,South,169,0.0,0.0,89,0.00,,,0.00,VWS V13.01,2013-04-22 12:38:00,
2013-04-22 07:40:00,57.6,54.1,30.00,South,169,0.0,0.0,88,0.00,,,0.00,VWS V15.00,2013-04-22 12:40:00,
2013-04-22 07:43:00,57.4,54.2,30.01,South,169,0.0,0.0,89,0.00,,,0.00,VWS V13.01,2013-04-22 12:43:00,
2013-04-22 07:48:00,57.7,54.5,30.01,South,169,0.0,0.0,89,0.00,,,0.00,VWS V13.01,2013-04-22 12:48:00,
2013-04-22 07:50:00,57.5,54.0,30.00,South,169,0.0,0.0,88,0.00,,,0.00,VWS V15.00,2013-04-22 12:50:00,
2013-04-22 07:53:00,57.9,54.7,30.01,South,169,0.0,0.0,89,0.00,,,0.00,VWS V13.01,2013-04-22 12:53:00,
2013-04-22 07:58:00,58.1,54.9,30.01,South,169,0.0,0.0,89,0.00,,,0.00,VWS V13.01,2013-04-22 12:58:00,
2013-04-22 08:00:00,57.4,53.9,30.01,South,169,0.0,0.0,88,0.00,,,0.00,VWS V15.00,2013-04-22 13:00:00,
2013-04-22 08:03:00,58.4,55.5,30.01,South,169,0.0,0.0,90,0.00,,,0.00,VWS V13.01,2013-04-22 13:03:00,
2013-04-22 08:08:00,58.7,55.5,30.01,South,169,0.0,0.0,89,0.00,,,0.00,VWS V13.01,2013-04-22 13:08:00,
2013-04-22 08:10:00,57.2,53.7,30.01,South,169,0.0,0.0,88,0.00,,,0.00,VWS V15.00,2013-04-22 13:10:00,
2013-04-22 08:13:00,59.0,55.8,30.01,South,169,0.0,0.0,89,0.00,,,0.00,VWS V13.01,2013-04-22 13:13:00,
2013-04-22 08:18:00,59.0,55.8,30.02,South,169,0.0,0.0,89,0.00,,,0.00,VWS V13.01,2013-04-22 13:18:00,
2013-04-22 08:20:00,57.2,54.0,30.01,South,169,0.0,0.0,89,0.00,,,0.00,VWS V15.00,2013-04-22 13:20:00,
2013-04-22 08:23:00,59.0,55.8,30.02,South,169,0.0,0.0,89,0.00,,,0.00,VWS V13.01,2013-04-22 13:23:00,
2013-04-22 08:28:00,59.3,55.8,30.02,South,169,0.0,6.0,88,0.00,,,0.00,VWS V13.01,2013-04-22 13:28:00,
2013-04-22 08:30:00,57.2,54.0,30.01,South,169,0.0,0.0,89,0.00,,,0.00,VWS V15.00,2013-04-22 13:30:00,
2013-04-22 08:33:00,59.8,56.2,30.02,South,169,0.0,0.0,88,0.00,,,0.00,VWS V13.01,2013-04-22 13:33:00,
2013-04-22 08:38:00,60.2,56.3,30.02,South,169,0.0,0.0,87,0.00,,,0.00,VWS V13.01,2013-04-22 13:38:00,
2013-04-22 08:40:00,57.4,54.2,30.01,South,169,0.0,0.0,89,0.00,,,0.00,VWS V15.00,2013-04-22 13:40:00,
2013-04-22 08:43:00,60.7,56.5,30.02,South,169,6.0,9.0,86,0.00,,,0.00,VWS V13.01,2013-04-22 13:43:00,
2013-04-22 08:48:00,61.1,56.6,30.02,South,169,0.0,9.0,85,0.00,,,0.00,VWS V13.01,2013-04-22 13:48:00,
2013-04-22 08:50:00,57.8,54.6,30.01,South,169,0.0,0.0,89,0.00,,,0.00,VWS V15.00,2013-04-22 13:50:00,
2013-04-22 08:53:00,61.8,56.9,30.02,South,169,0.0,6.0,84,0.00,,,0.00,VWS V13.01,2013-04-22 13:53:00,
2013-04-22 08:58:00,62.3,57.1,30.02,South,180,0.0,13.0,83,0.00,,,0.00,VWS V13.01,2013-04-22 13:58:00,
2013-04-22 09:00:00,58.2,55.3,30.01,South,169,0.0,0.0,90,0.00,,,0.00,VWS V15.00,2013-04-22 14:00:00,
2013-04-22 09:03:00,62.8,57.2,30.02,South,180,4.0,7.0,82,0.00,,,0.00,VWS V13.01,2013-04-22 14:03:00,
2013-04-22 09:08:00,63.3,57.4,30.02,South,180,0.0,7.0,81,0.00,,,0.00,VWS V13.01,2013-04-22 14:08:00,
2013-04-22 09:10:00,58.9,55.7,30.01,South,169,0.0,0.0,89,0.00,,,0.00,VWS V15.00,2013-04-22 14:10:00,
2013-04-22 09:13:00,64.1,58.2,30.02,South,184,0.0,9.0,81,0.00,,,0.00,VWS V13.01,2013-04-22 14:13:00,
2013-04-22 09:18:00,64.9,57.9,30.01,SSW,198,7.0,13.0,78,0.00,,,0.00,VWS V13.01,2013-04-22 14:18:00,
2013-04-22 09:20:00,59.0,55.8,30.02,South,169,0.0,0.0,89,0.00,,,0.00,VWS V15.00,2013-04-22 14:20:00,
2013-04-22 09:23:00,65.5,58.1,30.01,SSW,206,5.0,9.0,77,0.00,,,0.00,VWS V13.01,2013-04-22 14:23:00,
2013-04-22 09:28:00,66.0,57.9,30.01,SSW,202,8.0,12.0,75,0.00,,,0.00,VWS V13.01,2013-04-22 14:28:00,
2013-04-22 09:30:00,59.5,56.0,30.02,South,169,0.0,6.0,88,0.00,,,0.00,VWS V15.00,2013-04-22 14:30:00,
2013-04-22 09:34:00,66.3,58.5,30.01,SSW,202,7.0,7.0,76,0.00,,,0.00,VWS V13.01,2013-04-22 14:34:00,
2013-04-22 09:39:00,66.8,58.3,30.01,SW,215,9.0,12.0,74,0.00,,,0.00,VWS V13.01,2013-04-22 14:39:00,
2013-04-22 09:40:00,60.5,56.6,30.02,South,169,0.0,8.0,87,0.00,,,0.00,VWS V15.00,2013-04-22 14:40:00,
2013-04-22 09:43:00,67.3,58.4,30.01,SW,221,3.0,12.0,73,0.00,,,0.00,VWS V13.01,2013-04-22 14:43:00,
2013-04-22 09:48:00,67.9,58.5,30.01,SW,217,5.0,12.0,72,0.00,,,0.00,VWS V13.01,2013-04-22 14:48:00,
2013-04-22 09:50:00,61.4,56.9,30.02,South,169,0.0,9.0,85,0.00,,,0.00,VWS V15.00,2013-04-22 14:50:00,
2013-04-22 09:54:00,68.2,58.5,30.01,SW,230,14.0,15.0,71,0.00,,,0.00,VWS V13.01,2013-04-22 14:54:00,
2013-04-22 09:59:00,68.6,58.4,30.01,SW,232,9.0,15.0,70,0.00,,,0.00,VWS V13.01,2013-04-22 14:59:00,
2013-04-22 10:00:00,62.6,57.4,30.02,South,180,3.0,13.0,83,0.00,,,0.00,VWS V15.00,2013-04-22 15:00:00,
2013-04-22 10:04:00,69.2,58.6,30.02,SW,232,11.0,13.0,69,0.00,,,0.00,VWS V13.01,2013-04-22 15:04:00,
2013-04-22 10:09:00,69.8,58.8,30.02,SW,232,0.0,13.0,68,0.00,,,0.00,VWS V13.01,2013-04-22 15:09:00,
2013-04-22 10:10:00,63.6,57.7,30.02,South,180,0.0,7.0,81,0.00,,,0.00,VWS V15.00,2013-04-22 15:10:00,
2013-04-22 10:14:00,70.7,58.8,30.02,SW,234,11.0,12.0,66,0.00,,,0.00,VWS V13.01,2013-04-22 15:14:00,
2013-04-22 10:19:00,69.9,58.5,30.01,WSW,240,11.0,16.0,67,0.00,,,0.00,VWS V13.01,2013-04-22 15:19:00,
2013-04-22 10:20:00,65.2,57.8,30.01,SSW,206,7.0,13.0,77,0.00,,,0.00,VWS V15.00,2013-04-22 15:20:00,
2013-04-22 10:24:00,70.4,58.9,30.01,WSW,238,6.0,13.0,67,0.00,,,0.00,VWS V13.01,2013-04-22 15:24:00,
2013-04-22 10:29:00,70.7,58.4,30.01,SSW,209,7.0,13.0,65,0.00,,,0.00,VWS V13.01,2013-04-22 15:29:00,
2013-04-22 10:30:00,66.1,58.0,30.01,SSW,202,0.0,12.0,75,0.00,,,0.00,VWS V15.00,2013-04-22 15:30:00,
2013-04-22 10:34:00,70.8,58.0,30.02,SSW,198,15.0,16.0,64,0.00,,,0.00,VWS V13.01,2013-04-22 15:34:00,
2013-04-22 10:39:00,70.7,57.9,30.02,SSW,202,11.0,16.0,64,0.00,,,0.00,VWS V13.01,2013-04-22 15:39:00,
2013-04-22 10:40:00,67.0,58.1,30.01,SW,215,7.0,12.0,73,0.00,,,0.00,VWS V15.00,2013-04-22 15:40:00,
2013-04-22 10:44:00,71.2,58.0,30.02,SSW,206,7.0,12.0,63,0.00,,,0.00,VWS V13.01,2013-04-22 15:44:00,
2013-04-22 10:49:00,71.7,58.5,30.01,SSW,206,6.0,13.0,63,0.00,,,0.00,VWS V13.01,2013-04-22 15:49:00,
2013-04-22 10:50:00,68.0,58.3,30.01,SSW,211,12.0,13.0,71,0.00,,,0.00,VWS V15.00,2013-04-22 15:50:00,
2013-04-22 10:54:00,72.8,58.6,30.01,SSW,207,5.0,7.0,61,0.00,,,0.00,VWS V13.01,2013-04-22 15:54:00,
2013-04-22 10:59:00,72.6,58.4,30.01,SSW,211,12.0,12.0,61,0.00,,,0.00,VWS V13.01,2013-04-22 15:59:00,
2013-04-22 11:00:00,68.7,58.1,30.02,SW,230,8.0,16.0,69,0.00,,,0.00,VWS V15.00,2013-04-22 16:00:00,
2013-04-22 11:04:00,72.4,57.8,30.01,SW,234,7.0,18.0,60,0.00,,,0.00,VWS V13.01,2013-04-22 16:04:00,
2013-04-22 11:09:00,72.2,58.5,30.01,SW,218,5.0,18.0,62,0.00,,,0.00,VWS V13.01,2013-04-22 16:09:00,
2013-04-22 11:10:00,70.4,59.3,30.02,SW,232,6.0,13.0,68,0.00,,,0.00,VWS V15.00,2013-04-22 16:10:00,
2013-04-22 11:14:00,72.0,58.3,30.01,SSW,203,8.0,11.0,62,0.00,,,0.00,VWS V13.01,2013-04-22 16:14:00,
2013-04-22 11:19:00,73.0,59.2,30.01,SW,214,0.0,11.0,62,0.00,,,0.00,VWS V13.01,2013-04-22 16:19:00,
2013-04-22 11:20:00,69.9,58.5,30.01,SW,234,3.0,16.0,67,0.00,,,0.00,VWS V15.00,2013-04-22 16:20:00,
2013-04-22 11:24:00,74.8,58.6,30.01,SSW,213,7.0,12.0,57,0.00,,,0.00,VWS V13.01,2013-04-22 16:24:00,
2013-04-22 11:29:00,74.4,57.7,30.01,SSW,209,7.0,12.0,56,0.00,,,0.00,VWS V13.01,2013-04-22 16:29:00,
2013-04-22 11:30:00,70.8,58.0,30.02,SSW,208,6.0,13.0,64,0.00,,,0.00,VWS V15.00,2013-04-22 16:30:00,
2013-04-22 11:34:00,73.6,57.4,30.00,SSW,205,7.0,14.0,57,0.00,,,0.00,VWS V13.01,2013-04-22 16:34:00,
2013-04-22 11:39:00,74.0,57.8,30.00,SSW,209,6.0,14.0,57,0.00,,,0.00,VWS V13.01,2013-04-22 16:39:00,
2013-04-22 11:40:00,70.7,57.5,30.02,SSW,202,7.0,16.0,63,0.00,,,0.00,VWS V15.00,2013-04-22 16:40:00,
2013-04-22 11:44:00,74.5,56.8,30.00,SSW,205,7.0,14.0,54,0.00,,,0.00,VWS V13.01,2013-04-22 16:44:00,
2013-04-22 11:49:00,74.5,57.3,30.00,SSW,208,9.0,14.0,55,0.00,,,0.00,VWS V13.01,2013-04-22 16:49:00,
2013-04-22 11:50:00,72.3,58.6,30.01,SSW,207,7.0,13.0,62,0.00,,,0.00,VWS V15.00,2013-04-22 16:50:00,
2013-04-22 11:54:00,74.6,56.9,30.00,SSW,209,3.0,12.0,54,0.00,,,0.00,VWS V13.01,2013-04-22 16:54:00,
2013-04-22 11:59:00,74.7,57.5,30.00,SSW,200,14.0,15.0,55,0.00,,,0.00,VWS V13.01,2013-04-22 16:59:00,
2013-04-22 12:00:00,72.7,58.5,30.01,SW,217,8.0,12.0,61,0.00,,,0.00,VWS V15.00,2013-04-22 17:00:00,
2013-04-22 12:04:00,74.8,58.1,29.99,SSW,197,8.0,11.0,56,0.00,,,0.00,VWS V13.01,2013-04-22 17:04:00,
2013-04-22 12:09:00,75.4,57.6,29.99,SSW,203,11.0,13.0,54,0.00,,,0.00,VWS V13.01,2013-04-22 17:09:00,
2013-04-22 12:10:00,72.3,58.1,30.01,SSW,206,0.0,18.0,61,0.00,,,0.00,VWS V15.00,2013-04-22 17:10:00,
2013-04-22 12:14:00,76.7,58.3,29.99,SW,218,0.0,8.0,53,0.00,,,0.00,VWS V13.01,2013-04-22 17:14:00,
2013-04-22 12:19:00,75.8,57.5,29.98,SSW,201,10.0,15.0,53,0.00,,,0.00,VWS V13.01,2013-04-22 17:19:00,
2013-04-22 12:20:00,74.1,59.8,30.01,SW,214,0.0,11.0,61,0.00,,,0.00,VWS V15.00,2013-04-22 17:20:00,
2013-04-22 12:24:00,76.4,59.1,29.98,SSW,199,6.0,12.0,55,0.00,,,0.00,VWS V13.01,2013-04-22 17:24:00,
2013-04-22 12:29:00,77.7,59.2,29.98,SSW,205,6.0,12.0,53,0.00,,,0.00,VWS V13.01,2013-04-22 17:29:00,
2013-04-22 12:30:00,74.1,57.4,30.00,SSW,206,7.0,13.0,56,0.00,,,0.00,VWS V15.00,2013-04-22 17:30:00,
2013-04-22 12:34:00,78.4,59.9,29.97,SW,217,13.0,13.0,53,0.00,,,0.00,VWS V13.01,2013-04-22 17:34:00,
2013-04-22 12:39:00,79.3,59.6,29.97,SW,221,8.0,14.0,51,0.00,,,0.00,VWS V13.01,2013-04-22 17:39:00,
2013-04-22 12:40:00,74.8,57.6,30.00,SSW,210,7.0,14.0,55,0.00,,,0.00,VWS V15.00,2013-04-22 17:40:00,
2013-04-22 12:44:00,79.3,59.6,29.97,SW,218,7.0,13.0,51,0.00,,,0.00,VWS V13.01,2013-04-22 17:44:00,
2013-04-22 12:49:00,78.4,58.2,29.96,SSW,211,5.0,14.0,50,0.00,,,0.00,VWS V13.01,2013-04-22 17:49:00,
2013-04-22 12:50:00,74.4,57.2,30.00,SSW,211,7.0,14.0,55,0.00,,,0.00,VWS V15.00,2013-04-22 17:50:00,
2013-04-22 12:54:00,78.8,59.7,29.96,SSW,209,7.0,11.0,52,0.00,,,0.00,VWS V13.01,2013-04-22 17:54:00,
2013-04-22 12:59:00,79.3,59.6,29.96,SSW,200,10.0,17.0,51,0.00,,,0.00,VWS V13.01,2013-04-22 17:59:00,
2013-04-22 13:00:00,74.7,57.0,29.99,SSW,199,10.0,15.0,54,0.00,,,0.00,VWS V15.00,2013-04-22 18:00:00,
2013-04-22 13:04:00,77.8,59.8,29.95,SSW,199,0.0,9.0,54,0.00,,,0.00,VWS V13.01,2013-04-22 18:04:00,
2013-04-22 13:09:00,78.7,59.6,29.95,SSW,198,9.0,14.0,52,0.00,,,0.00,VWS V13.01,2013-04-22 18:09:00,
2013-04-22 13:10:00,75.9,58.1,29.99,SW,218,6.0,14.0,54,0.00,,,0.00,VWS V15.00,2013-04-22 18:10:00,
2013-04-22 13:14:00,79.0,59.9,29.95,SSW,202,8.0,17.0,52,0.00,,,0.00,VWS V13.01,2013-04-22 18:14:00,
2013-04-22 13:19:00,78.7,59.1,29.93,SSW,201,0.0,17.0,51,0.00,,,0.00,VWS V13.01,2013-04-22 18:19:00,
2013-04-22 13:20:00,75.5,58.2,29.98,SSW,201,5.0,15.0,55,0.00,,,0.00,VWS V15.00,2013-04-22 18:20:00,
2013-04-22 13:24:00,80.1,60.9,29.93,SW,224,10.0,11.0,52,0.00,,,0.00,VWS V13.01,2013-04-22 18:24:00,
2013-04-22 13:28:00,80.7,60.3,29.93,SSW,210,6.0,16.0,50,0.00,,,0.00,VWS V13.01,2013-04-22 18:28:00,
2013-04-22 13:30:00,77.7,58.7,29.97,SSW,205,7.0,12.0,52,0.00,,,0.00,VWS V15.00,2013-04-22 18:30:00,
2013-04-22 13:33:00,80.0,59.7,29.92,SSW,194,9.0,15.0,50,0.00,,,0.00,VWS V13.01,2013-04-22 18:33:00,
2013-04-22 13:39:00,79.4,60.8,29.92,SSW,197,0.0,15.0,53,0.00,,,0.00,VWS V13.01,2013-04-22 18:39:00,
2013-04-22 13:40:00,79.0,59.3,29.97,SW,224,5.0,14.0,51,0.00,,,0.00,VWS V15.00,2013-04-22 18:40:00,
2013-04-22 13:44:00,82.0,61.5,29.92,SSW,202,6.0,13.0,50,0.00,,,0.00,VWS V13.01,2013-04-22 18:44:00,
2013-04-22 13:48:00,82.0,61.0,29.91,SSW,203,12.0,15.0,49,0.00,,,0.00,VWS V13.01,2013-04-22 18:48:00,
2013-04-22 13:50:00,78.2,59.2,29.96,SSW,202,9.0,14.0,52,0.00,,,0.00,VWS V15.00,2013-04-22 18:50:00,
2013-04-22 13:53:00,81.6,60.6,29.91,South,190,10.0,16.0,49,0.00,,,0.00,VWS V13.01,2013-04-22 18:53:00,
2013-04-22 13:58:00,79.8,60.1,29.91,SSW,196,9.0,17.0,51,0.00,,,0.00,VWS V13.01,2013-04-22 18:58:00,
2013-04-22 14:00:00,78.4,58.8,29.95,SSW,200,4.0,17.0,51,0.00,,,0.00,VWS V15.00,2013-04-22 19:00:00,
2013-04-22 14:03:00,80.0,60.8,29.90,South,187,7.0,18.0,52,0.00,,,0.00,VWS V13.01,2013-04-22 19:03:00,
2013-04-22 14:08:00,81.4,61.0,29.90,SW,214,10.0,18.0,50,0.00,,,0.00,VWS V13.01,2013-04-22 19:08:00,
2013-04-22 14:10:00,79.1,60.0,29.95,SSW,205,8.0,14.0,52,0.00,,,0.00,VWS V15.00,2013-04-22 19:10:00,
2013-04-22 14:13:00,81.4,60.4,29.90,SW,218,0.0,17.0,49,0.00,,,0.00,VWS V13.01,2013-04-22 19:13:00,
2013-04-22 14:18:00,81.5,61.1,29.90,SSW,193,7.0,17.0,50,0.00,,,0.00,VWS V13.01,2013-04-22 19:18:00,
2013-04-22 14:20:00,78.8,60.2,29.93,SW,223,9.0,17.0,53,0.00,,,0.00,VWS V15.00,2013-04-22 19:20:00,
2013-04-22 14:23:00,81.4,61.5,29.90,SSW,207,7.0,12.0,51,0.00,,,0.00,VWS V13.01,2013-04-22 19:23:00,
2013-04-22 14:28:00,82.0,61.5,29.90,SW,227,15.0,16.0,50,0.00,,,0.00,VWS V13.01,2013-04-22 19:28:00,
2013-04-22 14:30:00,80.6,60.3,29.92,SW,229,6.0,16.0,50,0.00,,,0.00,VWS V15.00,2013-04-22 19:30:00,
2013-04-22 14:33:00,82.5,60.8,29.89,SSW,202,8.0,15.0,48,0.00,,,0.00,VWS V13.01,2013-04-22 19:33:00,
2013-04-22 14:38:00,83.0,61.3,29.89,SW,215,0.0,15.0,48,0.00,,,0.00,VWS V13.01,2013-04-22 19:38:00,
2013-04-22 14:40:00,80.7,60.9,29.92,SSW,198,0.0,15.0,51,0.00,,,0.00,VWS V15.00,2013-04-22 19:40:00,
2013-04-22 14:43:00,83.3,62.2,29.89,SSW,213,9.0,12.0,49,0.00,,,0.00,VWS V13.01,2013-04-22 19:43:00,
2013-04-22 14:48:00,82.9,61.2,29.88,SSW,194,7.0,16.0,48,0.00,,,0.00,VWS V13.01,2013-04-22 19:48:00,
2013-04-22 14:50:00,81.3,60.3,29.91,South,176,0.0,15.0,49,0.00,,,0.00,VWS V15.00,2013-04-22 19:50:00,
2013-04-22 14:53:00,82.6,60.3,29.88,SSW,192,7.0,14.0,47,0.00,,,0.00,VWS V13.01,2013-04-22 19:53:00,
2013-04-22 14:58:00,83.2,61.5,29.88,SW,232,8.0,14.0,48,0.00,,,0.00,VWS V13.01,2013-04-22 19:58:00,
2013-04-22 15:00:00,79.8,60.1,29.90,SW,220,7.0,17.0,51,0.00,,,0.00,VWS V15.00,2013-04-22 20:00:00,
2013-04-22 15:03:00,83.1,60.2,29.87,WSW,242,10.0,15.0,46,0.00,,,0.00,VWS V13.01,2013-04-22 20:03:00,
2013-04-22 15:08:00,83.8,60.8,29.87,SW,223,4.0,17.0,46,0.00,,,0.00,VWS V13.01,2013-04-22 20:08:00,
2013-04-22 15:10:00,81.7,60.7,29.90,SSW,200,17.0,18.0,49,0.00,,,0.00,VWS V15.00,2013-04-22 20:10:00,
2013-04-22 15:13:00,82.8,59.9,29.87,SW,214,7.0,17.0,46,0.00,,,0.00,VWS V13.01,2013-04-22 20:13:00,
2013-04-22 15:18:00,81.8,60.8,29.87,South,191,7.0,17.0,49,0.00,,,0.00,VWS V13.01,2013-04-22 20:18:00,
2013-04-22 15:20:00,81.5,61.7,29.90,SSE,167,10.0,17.0,51,0.00,,,0.00,VWS V15.00,2013-04-22 20:20:00,
2013-04-22 15:23:00,82.8,61.1,29.87,SSW,201,9.0,17.0,48,0.00,,,0.00,VWS V13.01,2013-04-22 20:23:00,
2013-04-22 15:28:00,83.6,61.3,29.87,SW,224,7.0,17.0,47,0.00,,,0.00,VWS V13.01,2013-04-22 20:28:00,
2013-04-22 15:30:00,82.7,61.0,29.89,SW,216,0.0,16.0,48,0.00,,,0.00,VWS V15.00,2013-04-22 20:30:00,
2013-04-22 15:33:00,84.2,61.2,29.85,SW,236,8.0,12.0,46,0.00,,,0.00,VWS V13.01,2013-04-22 20:33:00,
2013-04-22 15:38:00,84.6,61.6,29.85,SSW,199,7.0,13.0,46,0.00,,,0.00,VWS V13.01,2013-04-22 20:38:00,
2013-04-22 15:40:00,82.9,61.8,29.89,SW,219,3.0,15.0,49,0.00,,,0.00,VWS V15.00,2013-04-22 20:40:00,
2013-04-22 15:43:00,83.5,61.2,29.85,SW,223,8.0,17.0,47,0.00,,,0.00,VWS V13.01,2013-04-22 20:43:00,
2013-04-22 15:48:00,82.8,61.1,29.85,South,190,8.0,17.0,48,0.00,,,0.00,VWS V13.01,2013-04-22 20:48:00,
2013-04-22 15:50:00,82.6,60.3,29.88,SE,143,0.0,17.0,47,0.00,,,0.00,VWS V15.00,2013-04-22 20:50:00,
2013-04-22 15:53:00,83.3,60.4,29.85,SSE,151,13.0,15.0,46,0.00,,,0.00,VWS V13.01,2013-04-22 20:53:00,
2013-04-22 15:58:00,83.0,60.1,29.85,South,182,3.0,15.0,46,0.00,,,0.00,VWS V13.01,2013-04-22 20:58:00,
2013-04-22 16:00:00,83.1,60.2,29.87,South,188,10.0,17.0,46,0.00,,,0.00,VWS V15.00,2013-04-22 21:00:00,
2013-04-22 16:03:00,82.9,60.0,29.84,South,171,0.0,11.0,46,0.00,,,0.00,VWS V13.01,2013-04-22 21:03:00,
2013-04-22 16:08:00,83.2,60.9,29.84,WSW,239,9.0,18.0,47,0.00,,,0.00,VWS V13.01,2013-04-22 21:08:00,
2013-04-22 16:10:00,84.3,60.7,29.87,SSW,196,12.0,17.0,45,0.00,,,0.00,VWS V15.00,2013-04-22 21:10:00,
2013-04-22 16:13:00,82.9,58.8,29.84,SW,231,10.0,17.0,44,0.00,,,0.00,VWS V13.01,2013-04-22 21:13:00,
2013-04-22 16:18:00,82.9,60.0,29.83,SSE,162,3.0,17.0,46,0.00,,,0.00,VWS V13.01,2013-04-22 21:18:00,
2013-04-22 16:20:00,82.1,61.6,29.87,SW,230,5.0,17.0,50,0.00,,,0.00,VWS V15.00,2013-04-22 21:20:00,
2013-04-22 16:23:00,82.6,60.3,29.83,SSW,197,12.0,15.0,47,0.00,,,0.00,VWS V13.01,2013-04-22 21:23:00,
2013-04-22 16:28:00,83.1,60.8,29.83,SW,218,12.0,20.0,47,0.00,,,0.00,VWS V13.01,2013-04-22 21:28:00,
2013-04-22 16:30:00,83.9,61.5,29.85,SW,233,13.0,19.0,47,0.00,,,0.00,VWS V15.00,2013-04-22 21:30:00,
2013-04-22 16:33:00,83.8,61.4,29.82,SW,227,12.0,12.0,47,0.00,,,0.00,VWS V13.01,2013-04-22 21:33:00,
2013-04-22 16:38:00,83.6,60.7,29.82,SSW,200,11.0,15.0,46,0.00,,,0.00,VWS V13.01,2013-04-22 21:38:00,
2013-04-22 16:40:00,83.6,61.3,29.85,SSW,207,13.0,19.0,47,0.00,,,0.00,VWS V15.00,2013-04-22 21:40:00,
2013-04-22 16:43:00,83.6,60.7,29.82,South,184,12.0,14.0,46,0.00,,,0.00,VWS V13.01,2013-04-22 21:43:00,
2013-04-22 16:48:00,83.0,60.7,29.82,SSW,203,8.0,17.0,47,0.00,,,0.00,VWS V13.01,2013-04-22 21:48:00,
2013-04-22 16:50:00,82.8,60.5,29.85,SSW,213,9.0,17.0,47,0.00,,,0.00,VWS V15.00,2013-04-22 21:50:00,
2013-04-22 16:53:00,82.5,59.7,29.82,SSW,211,8.0,17.0,46,0.00,,,0.00,VWS V13.01,2013-04-22 21:53:00,
2013-04-22 16:58:00,82.8,61.1,29.82,SW,228,3.0,17.0,48,0.00,,,0.00,VWS V13.01,2013-04-22 21:58:00,
2013-04-22 17:00:00,82.5,59.7,29.84,SW,223,9.0,18.0,46,0.00,,,0.00,VWS V15.00,2013-04-22 22:00:00,
2013-04-22 17:03:00,83.5,60.6,29.81,SW,231,10.0,14.0,46,0.00,,,0.00,VWS V13.01,2013-04-22 22:03:00,
2013-04-22 17:08:00,83.1,60.8,29.81,SE,126,7.0,14.0,47,0.00,,,0.00,VWS V13.01,2013-04-22 22:08:00,
2013-04-22 17:10:00,83.5,60.6,29.84,SSW,210,12.0,18.0,46,0.00,,,0.00,VWS V15.00,2013-04-22 22:10:00,
2013-04-22 17:13:00,82.8,59.9,29.81,SW,220,13.0,19.0,46,0.00,,,0.00,VWS V13.01,2013-04-22 22:13:00,
2013-04-22 17:18:00,82.5,60.3,29.80,South,177,8.0,19.0,47,0.00,,,0.00,VWS V13.01,2013-04-22 22:18:00,
2013-04-22 17:20:00,82.8,59.9,29.83,SSW,194,9.0,17.0,46,0.00,,,0.00,VWS V15.00,2013-04-22 22:20:00,
2013-04-22 17:23:00,83.0,61.3,29.80,SW,236,10.0,15.0,48,0.00,,,0.00,VWS V13.01,2013-04-22 22:23:00,
2013-04-22 17:28:00,83.8,60.8,29.80,SW,216,4.0,15.0,46,0.00,,,0.00,VWS V13.01,2013-04-22 22:28:00,
2013-04-22 17:30:00,83.6,60.0,29.82,WSW,239,10.0,20.0,45,0.00,,,0.00,VWS V15.00,2013-04-22 22:30:00,
2013-04-22 17:33:00,83.1,59.6,29.80,SW,214,11.0,20.0,45,0.00,,,0.00,VWS V13.01,2013-04-22 22:33:00,
2013-04-22 17:38:00,83.3,60.4,29.80,SW,221,9.0,20.0,46,0.00,,,0.00,VWS V13.01,2013-04-22 22:38:00,
2013-04-22 17:40:00,83.8,60.2,29.82,SSW,192,14.0,16.0,45,0.00,,,0.00,VWS V15.00,2013-04-22 22:40:00,
2013-04-22 17:43:00,83.4,60.5,29.80,SSW,212,6.0,10.0,46,0.00,,,0.00,VWS V13.01,2013-04-22 22:43:00,
2013-04-22 17:48:00,83.1,60.8,29.79,SSW,199,0.0,14.0,47,0.00,,,0.00,VWS V13.01,2013-04-22 22:48:00,
2013-04-22 17:50:00,82.6,59.7,29.82,SW,232,7.0,17.0,46,0.00,,,0.00,VWS V15.00,2013-04-22 22:50:00,
2013-04-22 17:53:00,82.6,60.9,29.79,SSW,197,1.0,12.0,48,0.00,,,0.00,VWS V13.01,2013-04-22 22:53:00,
2013-04-22 17:58:00,82.8,61.1,29.79,SSW,195,0.0,12.0,48,0.00,,,0.00,VWS V13.01,2013-04-22 22:58:00,
2013-04-22 18:00:00,83.3,61.6,29.81,SW,223,7.0,17.0,48,0.00,,,0.00,VWS V15.00,2013-04-22 23:00:00,
2013-04-22 18:03:00,83.0,61.3,29.79,SSW,207,13.0,13.0,48,0.00,,,0.00,VWS V13.01,2013-04-22 23:03:00,
2013-04-22 18:08:00,83.2,60.3,29.79,South,186,2.0,17.0,46,0.00,,,0.00,VWS V13.01,2013-04-22 23:08:00,
2013-04-22 18:10:00,82.7,61.0,29.81,South,184,11.0,14.0,48,0.00,,,0.00,VWS V15.00,2013-04-22 23:10:00,
2013-04-22 18:13:00,82.4,60.8,29.79,South,190,11.0,15.0,48,0.00,,,0.00,VWS V13.01,2013-04-22 23:13:00,
2013-04-22 18:18:00,82.8,60.5,29.79,SSW,203,4.0,15.0,47,0.00,,,0.00,VWS V13.01,2013-04-22 23:18:00,
2013-04-22 18:20:00,82.7,60.4,29.80,SSW,195,15.0,19.0,47,0.00,,,0.00,VWS V15.00,2013-04-22 23:20:00,
2013-04-22 18:23:00,82.4,60.2,29.79,SSW,196,10.0,18.0,47,0.00,,,0.00,VWS V13.01,2013-04-22 23:23:00,
2013-04-22 18:28:00,82.9,60.6,29.79,SSW,211,2.0,18.0,47,0.00,,,0.00,VWS V13.01,2013-04-22 23:28:00,
2013-04-22 18:30:00,83.2,60.3,29.80,SSW,204,7.0,17.0,46,0.00,,,0.00,VWS V15.00,2013-04-22 23:30:00,
2013-04-22 18:33:00,82.8,60.5,29.79,SW,229,9.0,14.0,47,0.00,,,0.00,VWS V13.01,2013-04-22 23:33:00,
2013-04-22 18:38:00,82.3,60.7,29.79,SSW,197,0.0,14.0,48,0.00,,,0.00,VWS V13.01,2013-04-22 23:38:00,
2013-04-22 18:40:00,83.4,61.1,29.80,SW,214,9.0,20.0,47,0.00,,,0.00,VWS V15.00,2013-04-22 23:40:00,
2013-04-22 18:43:00,82.1,60.5,29.79,SSW,207,7.0,14.0,48,0.00,,,0.00,VWS V13.01,2013-04-22 23:43:00,
2013-04-22 18:48:00,82.1,59.9,29.79,SSW,196,8.0,16.0,47,0.00,,,0.00,VWS V13.01,2013-04-22 23:48:00,
2013-04-22 18:50:00,82.8,60.5,29.79,South,184,2.0,14.0,47,0.00,,,0.00,VWS V15.00,2013-04-22 23:50:00,
2013-04-22 18:53:00,82.0,60.4,29.79,SSW,205,1.0,9.0,48,0.00,,,0.00,VWS V13.01,2013-04-22 23:53:00,
2013-04-22 18:58:00,81.9,60.3,29.79,SSW,209,5.0,13.0,48,0.00,,,0.00,VWS V13.01,2013-04-22 23:58:00,
2013-04-22 19:00:00,82.8,60.5,29.79,SSW,193,1.0,12.0,47,0.00,,,0.00,VWS V15.00,2013-04-23 00:00:00,
2013-04-22 19:03:00,81.6,60.0,29.78,SSW,195,3.0,14.0,48,0.00,,,0.00,VWS V13.01,2013-04-23 00:03:00,
2013-04-22 19:08:00,81.6,60.0,29.78,SW,217,10.0,15.0,48,0.00,,,0.00,VWS V13.01,2013-04-23 00:08:00,
2013-04-22 19:10:00,82.8,60.5,29.79,South,184,10.0,17.0,47,0.00,,,0.00,VWS V15.00,2013-04-23 00:10:00,
2013-04-22 19:14:00,81.5,60.5,29.78,SSW,207,12.0,16.0,49,0.00,,,0.00,VWS V13.01,2013-04-23 00:14:00,
2013-04-22 19:19:00,81.2,60.2,29.78,SSW,213,1.0,17.0,49,0.00,,,0.00,VWS V13.01,2013-04-23 00:19:00,
2013-04-22 19:20:00,82.7,60.4,29.79,SSE,167,6.0,18.0,47,0.00,,,0.00,VWS V15.00,2013-04-23 00:20:00,
2013-04-22 19:24:00,81.1,60.2,29.78,SW,219,7.0,11.0,49,0.00,,,0.00,VWS V13.01,2013-04-23 00:24:00,
2013-04-22 19:29:00,80.9,60.0,29.78,SSW,196,9.0,13.0,49,0.00,,,0.00,VWS V13.01,2013-04-23 00:29:00,
2013-04-22 19:30:00,83.0,60.7,29.79,SW,223,9.0,18.0,47,0.00,,,0.00,VWS V15.00,2013-04-23 00:30:00,
2013-04-22 19:34:00,80.6,59.7,29.78,SSW,203,5.0,14.0,49,0.00,,,0.00,VWS V13.01,2013-04-23 00:34:00,
2013-04-22 19:39:00,80.4,59.5,29.78,SSW,198,0.0,14.0,49,0.00,,,0.00,VWS V13.01,2013-04-23 00:39:00,
2013-04-22 19:40:00,82.2,60.6,29.79,SSW,194,9.0,15.0,48,0.00,,,0.00,VWS V15.00,2013-04-23 00:40:00,
2013-04-22 19:44:00,80.3,59.4,29.78,SSW,196,7.0,11.0,49,0.00,,,0.00,VWS V13.01,2013-04-23 00:44:00,
2013-04-22 19:49:00,80.0,59.7,29.78,SSW,197,9.0,13.0,50,0.00,,,0.00,VWS V13.01,2013-04-23 00:49:00,
2013-04-22 19:50:00,82.0,60.4,29.79,SSW,194,7.0,16.0,48,0.00,,,0.00,VWS V15.00,2013-04-23 00:50:00,
2013-04-22 19:54:00,79.9,59.6,29.78,SSW,194,5.0,10.0,50,0.00,,,0.00,VWS V13.01,2013-04-23 00:54:00,
2013-04-22 19:59:00,79.7,59.4,29.78,South,186,0.0,10.0,50,0.00,,,0.00,VWS V13.01,2013-04-23 00:59:00,
2013-04-22 20:00:00,81.7,60.1,29.78,SSE,160,6.0,13.0,48,0.00,,,0.00,VWS V15.00,2013-04-23 01:00:00,
2013-04-22 20:04:00,79.5,59.8,29.78,South,178,4.0,7.0,51,0.00,,,0.00,VWS V13.01,2013-04-23 01:04:00,
2013-04-22 20:09:00,79.2,59.5,29.78,South,174,0.0,7.0,51,0.00,,,0.00,VWS V13.01,2013-04-23 01:09:00,
2013-04-22 20:10:00,81.6,60.6,29.78,SSW,198,14.0,15.0,49,0.00,,,0.00,VWS V15.00,2013-04-23 01:10:00,
2013-04-22 20:14:00,78.9,59.2,29.78,South,173,0.0,3.0,51,0.00,,,0.00,VWS V13.01,2013-04-23 01:14:00,
2013-04-22 20:19:00,78.9,59.2,29.79,SSE,163,0.0,12.0,51,0.00,,,0.00,VWS V13.01,2013-04-23 01:19:00,
2013-04-22 20:20:00,81.2,60.2,29.78,South,174,9.0,17.0,49,0.00,,,0.00,VWS V15.00,2013-04-23 01:20:00,
2013-04-22 20:24:00,78.7,59.6,29.79,South,185,4.0,11.0,52,0.00,,,0.00,VWS V13.01,2013-04-23 01:24:00,
2013-04-22 20:29:00,78.7,59.6,29.79,South,179,0.0,11.0,52,0.00,,,0.00,VWS V13.01,2013-04-23 01:29:00,
2013-04-22 20:30:00,80.8,59.9,29.78,SSW,205,7.0,13.0,49,0.00,,,0.00,VWS V15.00,2013-04-23 01:30:00,
2013-04-22 20:34:00,78.5,59.4,29.79,South,174,6.0,8.0,52,0.00,,,0.00,VWS V13.01,2013-04-23 01:34:00,
2013-04-22 20:39:00,78.4,59.3,29.79,South,174,0.0,8.0,52,0.00,,,0.00,VWS V13.01,2013-04-23 01:39:00,
2013-04-22 20:40:00,80.4,59.5,29.78,South,184,0.0,14.0,49,0.00,,,0.00,VWS V15.00,2013-04-23 01:40:00,
2013-04-22 20:44:00,78.2,59.2,29.79,South,173,0.0,9.0,52,0.00,,,0.00,VWS V13.01,2013-04-23 01:44:00,
2013-04-22 20:49:00,78.2,59.2,29.79,South,169,0.0,9.0,52,0.00,,,0.00,VWS V13.01,2013-04-23 01:49:00,
2013-04-22 20:50:00,80.0,59.7,29.78,SSW,207,5.0,13.0,50,0.00,,,0.00,VWS V15.00,2013-04-23 01:50:00,
2013-04-22 20:54:00,78.0,59.0,29.79,SSE,166,0.0,3.0,52,0.00,,,0.00,VWS V13.01,2013-04-23 01:54:00,
2013-04-22 20:59:00,77.9,59.4,29.79,SSE,166,0.0,9.0,53,0.00,,,0.00,VWS V13.01,2013-04-23 01:59:00,
2013-04-22 21:00:00,79.6,59.3,29.78,South,185,1.0,10.0,50,0.00,,,0.00,VWS V15.00,2013-04-23 02:00:00,
2013-04-22 21:04:00,77.8,59.3,29.79,SSE,166,0.0,6.0,53,0.00,,,0.00,VWS V13.01,2013-04-23 02:04:00,
2013-04-22 21:09:00,77.6,59.1,29.79,SSE,165,6.0,10.0,53,0.00,,,0.00,VWS V13.01,2013-04-23 02:09:00,
2013-04-22 21:10:00,79.1,59.4,29.78,South,173,0.0,7.0,51,0.00,,,0.00,VWS V15.00,2013-04-23 02:10:00,
2013-04-22 21:14:00,77.4,59.0,29.79,SSE,164,5.0,9.0,53,0.00,,,0.00,VWS V13.01,2013-04-23 02:14:00,
2013-04-22 21:19:00,77.2,58.8,29.79,SSE,164,0.0,10.0,53,0.00,,,0.00,VWS V13.01,2013-04-23 02:19:00,
2013-04-22 21:20:00,78.7,59.1,29.79,SSE,163,0.0,12.0,51,0.00,,,0.00,VWS V15.00,2013-04-23 02:20:00,
2013-04-22 21:24:00,77.0,59.1,29.79,SSE,164,1.0,5.0,54,0.00,,,0.00,VWS V13.01,2013-04-23 02:24:00,
2013-04-22 21:29:00,76.8,58.9,29.79,SSE,159,0.0,10.0,54,0.00,,,0.00,VWS V13.01,2013-04-23 02:29:00,
2013-04-22 21:30:00,78.7,59.6,29.79,South,179,0.0,11.0,52,0.00,,,0.00,VWS V15.00,2013-04-23 02:30:00,
2013-04-22 21:34:00,76.6,58.7,29.79,SSE,159,0.0,0.0,54,0.00,,,0.00,VWS V13.01,2013-04-23 02:34:00,
2013-04-22 21:39:00,76.4,59.1,29.79,SSE,159,0.0,6.0,55,0.00,,,0.00,VWS V13.01,2013-04-23 02:39:00,
2013-04-22 21:40:00,78.3,59.2,29.79,South,174,0.0,8.0,52,0.00,,,0.00,VWS V15.00,2013-04-23 02:40:00,
2013-04-22 21:44:00,76.0,58.7,29.79,SSE,159,0.0,6.0,55,0.00,,,0.00,VWS V13.01,2013-04-23 02:44:00,
2013-04-22 21:49:00,75.9,59.1,29.79,SSE,159,5.0,9.0,56,0.00,,,0.00,VWS V13.01,2013-04-23 02:49:00,
2013-04-22 21:50:00,78.1,59.1,29.79,SSE,165,0.0,9.0,52,0.00,,,0.00,VWS V15.00,2013-04-23 02:50:00,
2013-04-22 21:54:00,75.8,59.0,29.79,SSE,155,4.0,8.0,56,0.00,,,0.00,VWS V13.01,2013-04-23 02:54:00,
2013-04-22 21:59:00,75.8,59.0,29.79,SSE,155,7.0,10.0,56,0.00,,,0.00,VWS V13.01,2013-04-23 02:59:00,
2013-04-22 22:00:00,77.8,59.3,29.79,SSE,165,1.0,9.0,53,0.00,,,0.00,VWS V15.00,2013-04-23 03:00:00,
2013-04-22 22:04:00,75.7,58.9,29.80,SSE,152,3.0,8.0,56,0.00,,,0.00,VWS V13.01,2013-04-23 03:04:00,
2013-04-22 22:09:00,75.4,59.1,29.80,SSE,165,6.0,15.0,57,0.00,,,0.00,VWS V13.01,2013-04-23 03:09:00,
2013-04-22 22:10:00,77.5,59.0,29.79,SSE,164,0.0,10.0,53,0.00,,,0.00,VWS V15.00,2013-04-23 03:10:00,
2013-04-22 22:14:00,75.0,59.2,29.80,South,169,1.0,9.0,58,0.00,,,0.00,VWS V13.01,2013-04-23 03:14:00,
2013-04-22 22:19:00,74.6,59.3,29.81,South,172,0.0,10.0,59,0.00,,,0.00,VWS V13.01,2013-04-23 03:19:00,
2013-04-22 22:20:00,77.2,58.8,29.79,SSE,164,0.0,10.0,53,0.00,,,0.00,VWS V15.00,2013-04-23 03:20:00,
2013-04-22 22:24:00,74.5,59.2,29.81,South,172,0.0,8.0,59,0.00,,,0.00,VWS V13.01,2013-04-23 03:24:00,
2013-04-22 22:29:00,74.3,59.5,29.81,SE,146,8.0,12.0,60,0.00,,,0.00,VWS V13.01,2013-04-23 03:29:00,
2013-04-22 22:30:00,76.7,58.8,29.79,SSE,159,0.0,10.0,54,0.00,,,0.00,VWS V15.00,2013-04-23 03:30:00,
2013-04-22 22:34:00,74.1,59.8,29.82,SE,132,7.0,15.0,61,0.00,,,0.00,VWS V13.01,2013-04-23 03:34:00,
2013-04-22 22:39:00,73.9,60.1,29.82,SSE,157,5.0,15.0,62,0.00,,,0.00,VWS V13.01,2013-04-23 03:39:00,
2013-04-22 22:40:00,76.2,58.9,29.79,SSE,159,0.0,7.0,55,0.00,,,0.00,VWS V15.00,2013-04-23 03:40:00,
2013-04-22 22:44:00,73.7,60.3,29.82,SSE,150,0.0,15.0,63,0.00,,,0.00,VWS V13.01,2013-04-23 03:44:00,
2013-04-22 22:49:00,73.4,60.5,29.82,SSE,161,1.0,15.0,64,0.00,,,0.00,VWS V13.01,2013-04-23 03:49:00,
2013-04-22 22:50:00,75.9,59.1,29.79,SSE,159,2.0,9.0,56,0.00,,,0.00,VWS V15.00,2013-04-23 03:50:00,
2013-04-22 22:54:00,73.1,60.7,29.82,SSE,156,14.0,17.0,65,0.00,,,0.00,VWS V13.01,2013-04-23 03:54:00,
2013-04-22 22:59:00,72.8,60.8,29.82,SSE,161,6.0,17.0,66,0.00,,,0.00,VWS V13.01,2013-04-23 03:59:00,
2013-04-22 23:00:00,75.7,58.9,29.80,SSE,150,1.0,10.0,56,0.00,,,0.00,VWS V15.00,2013-04-23 04:00:00,
2013-04-22 23:01:00,72.7,60.7,29.82,SSE,158,10.0,17.0,66,0.00,,,0.00,VWS V13.01,2013-04-23 04:01:00,
2013-04-22 23:02:00,72.6,60.6,29.82,SSE,160,0.0,9.0,66,0.00,,,0.00,VWS V13.01,2013-04-23 04:02:00,
2013-04-22 23:07:00,72.4,60.8,29.82,SSE,155,13.0,16.0,67,0.00,,,0.00,VWS V13.01,2013-04-23 04:07:00,
2013-04-22 23:10:00,75.2,59.4,29.80,South,177,2.0,15.0,58,0.00,,,0.00,VWS V15.00,2013-04-23 04:10:00,
2013-04-22 23:12:00,72.1,60.5,29.82,SSE,163,3.0,12.0,67,0.00,,,0.00,VWS V13.01,2013-04-23 04:12:00,
2013-04-22 23:17:00,71.9,60.8,29.82,SE,139,6.0,14.0,68,0.00,,,0.00,VWS V13.01,2013-04-23 04:17:00,
2013-04-22 23:20:00,74.6,59.3,29.81,South,172,0.0,10.0,59,0.00,,,0.00,VWS V15.00,2013-04-23 04:20:00,
2013-04-22 23:22:00,71.6,60.9,29.82,SSE,156,12.0,12.0,69,0.00,,,0.00,VWS V13.01,2013-04-23 04:22:00,
2013-04-22 23:27:00,71.3,61.0,29.82,South,184,10.0,19.0,70,0.00,,,0.00,VWS V13.01,2013-04-23 04:27:00,
2013-04-22 23:30:00,74.2,59.4,29.82,SE,143,8.0,12.0,60,0.00,,,0.00,VWS V15.00,2013-04-23 04:30:00,
2013-04-22 23:32:00,71.1,60.8,29.82,South,171,8.0,10.0,70,0.00,,,0.00,VWS V13.01,2013-04-23 04:32:00,
2013-04-22 23:37:00,70.9,61.0,29.82,South,178,1.0,16.0,71,0.00,,,0.00,VWS V13.01,2013-04-23 04:37:00,
2013-04-22 23:40:00,73.8,60.0,29.82,SE,142,12.0,15.0,62,0.00,,,0.00,VWS V15.00,2013-04-23 04:40:00,
2013-04-22 23:42:00,70.6,61.1,29.82,SSE,153,9.0,13.0,72,0.00,,,0.00,VWS V13.01,2013-04-23 04:42:00,
2013-04-22 23:47:00,70.4,61.3,29.82,SSE,166,12.0,17.0,73,0.00,,,0.00,VWS V13.01,2013-04-23 04:47:00,
2013-04-22 23:50:00,73.3,60.4,29.82,SSE,159,0.0,15.0,64,0.00,,,0.00,VWS V15.00,2013-04-23 04:50:00,
2013-04-22 23:52:00,70.1,61.4,29.82,South,176,11.0,15.0,74,0.00,,,0.00,VWS V13.01,2013-04-23 04:52:00,
2013-04-22 23:57:00,69.8,61.2,29.82,SW,233,4.0,18.0,74,0.00,,,0.00,VWS V13.01,2013-04-23 04:57:00,